createdAt,value
2023-04-05T00:00:24.461Z,0
2023-04-05T00:01:24.465Z,0
2023-04-05T00:02:24.478Z,0
2023-04-05T00:03:24.689Z,0
2023-04-05T00:04:24.552Z,0
2023-04-05T00:05:24.469Z,0
2023-04-05T00:06:24.500Z,0
2023-04-05T00:07:24.493Z,0
2023-04-05T00:08:24.472Z,0
2023-04-05T00:09:24.487Z,0
2023-04-05T00:10:24.489Z,0
2023-04-05T00:11:24.489Z,0
2023-04-05T00:12:24.482Z,0
2023-04-05T00:13:24.485Z,0
2023-04-05T00:14:24.482Z,0
2023-04-05T00:15:24.485Z,0
2023-04-05T00:16:24.512Z,0
2023-04-05T00:17:24.503Z,0
2023-04-05T00:18:24.512Z,0
2023-04-05T00:19:24.494Z,0
2023-04-05T00:20:24.492Z,0
2023-04-05T00:21:24.500Z,0
2023-04-05T00:22:24.520Z,0
2023-04-05T00:23:24.493Z,0
2023-04-05T00:24:24.505Z,0
2023-04-05T00:25:24.491Z,0
2023-04-05T00:26:24.500Z,0
2023-04-05T00:27:24.504Z,0
2023-04-05T00:28:24.523Z,0
2023-04-05T00:29:24.519Z,0
2023-04-05T00:30:24.504Z,0
2023-04-05T00:31:24.514Z,0
2023-04-05T00:32:24.561Z,0
2023-04-05T00:33:24.504Z,0
2023-04-05T00:34:24.510Z,0
2023-04-05T00:35:24.506Z,0
2023-04-05T00:36:24.509Z,0
2023-04-05T00:37:24.528Z,0
2023-04-05T00:38:24.531Z,0
2023-04-05T00:39:24.519Z,0
2023-04-05T00:40:24.529Z,0
2023-04-05T00:41:24.526Z,0
2023-04-05T00:42:24.512Z,0
2023-04-05T00:43:24.519Z,0
2023-04-05T00:44:24.514Z,0
2023-04-05T00:45:24.515Z,0
2023-04-05T00:46:24.557Z,0
2023-04-05T00:47:24.535Z,0
2023-04-05T00:48:24.516Z,0
2023-04-05T00:49:24.521Z,0
2023-04-05T00:50:24.517Z,0
2023-04-05T00:51:24.518Z,0
2023-04-05T00:52:24.521Z,0
2023-04-05T00:53:24.525Z,0
2023-04-05T00:54:24.548Z,0
2023-04-05T00:55:24.527Z,0
2023-04-05T00:56:24.534Z,0
2023-04-05T00:57:24.532Z,0
2023-04-05T00:58:24.531Z,0
2023-04-05T00:59:24.558Z,0
2023-04-05T01:00:24.575Z,0
2023-04-05T01:01:24.593Z,0
2023-04-05T01:02:24.574Z,0
2023-04-05T01:03:24.535Z,0
2023-04-05T01:04:24.553Z,0
2023-04-05T01:05:24.532Z,0
2023-04-05T01:06:24.529Z,0
2023-04-05T01:07:24.533Z,0
2023-04-05T01:08:24.533Z,0
2023-04-05T01:09:24.535Z,0
2023-04-05T01:10:24.559Z,0
2023-04-05T01:11:24.533Z,0
2023-04-05T01:12:24.530Z,0
2023-04-05T01:13:24.533Z,0
2023-04-05T01:14:24.534Z,0
2023-04-05T01:15:24.534Z,0
2023-04-05T01:16:24.539Z,0
2023-04-05T01:17:24.542Z,0
2023-04-05T01:18:24.546Z,0
2023-04-05T01:19:24.540Z,0
2023-04-05T01:20:24.539Z,0
2023-04-05T01:21:24.541Z,0
2023-04-05T01:22:24.542Z,0
2023-04-05T01:23:24.537Z,0
2023-04-05T01:24:24.541Z,0
2023-04-05T01:25:24.541Z,0
2023-04-05T01:26:24.569Z,0
2023-04-05T01:27:24.549Z,0
2023-04-05T01:28:24.559Z,0
2023-04-05T01:29:24.551Z,0
2023-04-05T01:30:24.546Z,0
2023-04-05T01:31:24.574Z,0
2023-04-05T01:32:24.561Z,0
2023-04-05T01:33:24.551Z,0
2023-04-05T01:34:24.555Z,0
2023-04-05T01:35:24.557Z,0
2023-04-05T01:36:24.614Z,0
2023-04-05T01:37:24.552Z,0
2023-04-05T01:38:24.557Z,0
2023-04-05T01:39:24.560Z,0
2023-04-05T01:40:24.565Z,0
2023-04-05T01:41:24.561Z,0
2023-04-05T01:42:24.655Z,0
2023-04-05T01:43:24.560Z,0
2023-04-05T01:44:24.572Z,0
2023-04-05T01:45:24.576Z,0
2023-04-05T01:46:24.611Z,0
2023-04-05T01:47:24.616Z,0
2023-04-05T01:48:24.565Z,0
2023-04-05T01:49:24.576Z,0
2023-04-05T01:50:24.572Z,0
2023-04-05T01:51:24.572Z,0
2023-04-05T01:52:24.567Z,0
2023-04-05T01:53:24.575Z,0
2023-04-05T01:54:24.576Z,0
2023-04-05T01:55:24.573Z,0
2023-04-05T01:56:24.575Z,0
2023-04-05T01:57:24.572Z,0
2023-04-05T01:58:24.603Z,0
2023-04-05T01:59:24.665Z,0
2023-04-05T02:00:24.577Z,0
2023-04-05T02:01:24.608Z,0
2023-04-05T02:02:24.617Z,0
2023-04-05T02:03:24.746Z,0
2023-04-05T02:04:24.579Z,0
2023-04-05T02:05:24.592Z,0
2023-04-05T02:06:24.580Z,0
2023-04-05T02:07:24.591Z,0
2023-04-05T02:08:24.579Z,0
2023-04-05T02:09:24.584Z,0
2023-04-05T02:10:24.584Z,0
2023-04-05T02:11:24.582Z,0
2023-04-05T02:12:24.582Z,0
2023-04-05T02:13:24.584Z,0
2023-04-05T02:14:24.626Z,0
2023-04-05T02:15:24.592Z,0
2023-04-05T02:16:24.603Z,0
2023-04-05T02:17:24.588Z,0
2023-04-05T02:18:24.590Z,0
2023-04-05T02:19:24.586Z,0
2023-04-05T02:20:24.584Z,0
2023-04-05T02:21:24.588Z,0
2023-04-05T02:22:24.584Z,0
2023-04-05T02:23:24.584Z,0
2023-04-05T02:24:24.590Z,0
2023-04-05T02:25:24.585Z,0
2023-04-05T02:26:24.590Z,0
2023-04-05T02:27:24.590Z,0
2023-04-05T02:28:24.593Z,0
2023-04-05T02:29:24.594Z,0
2023-04-05T02:30:24.630Z,0
2023-04-05T02:31:24.604Z,0
2023-04-05T02:32:24.596Z,0
2023-04-05T02:33:24.590Z,0
2023-04-05T02:34:24.595Z,0
2023-04-05T02:35:24.623Z,0
2023-04-05T02:36:24.595Z,0
2023-04-05T02:37:24.594Z,0
2023-04-05T02:38:24.593Z,0
2023-04-05T02:39:24.594Z,0
2023-04-05T02:40:24.590Z,0
2023-04-05T02:41:24.592Z,0
2023-04-05T02:42:24.598Z,0
2023-04-05T02:43:24.593Z,0
2023-04-05T02:44:24.593Z,0
2023-04-05T02:45:24.594Z,0
2023-04-05T02:46:24.671Z,0
2023-04-05T02:47:24.595Z,0
2023-04-05T02:48:24.591Z,0
2023-04-05T02:49:24.597Z,0
2023-04-05T02:50:24.594Z,0
2023-04-05T02:51:24.596Z,0
2023-04-05T02:52:24.596Z,0
2023-04-05T02:53:24.593Z,0
2023-04-05T02:54:24.602Z,0
2023-04-05T02:55:24.600Z,0
2023-04-05T02:56:24.602Z,0
2023-04-05T02:57:24.601Z,0
2023-04-05T02:58:24.612Z,0
2023-04-05T02:59:24.656Z,0
2023-04-05T03:00:24.607Z,0
2023-04-05T03:01:24.656Z,0
2023-04-05T03:02:24.641Z,0
2023-04-05T03:03:24.610Z,0
2023-04-05T03:04:24.609Z,0
2023-04-05T03:05:24.604Z,0
2023-04-05T03:06:24.609Z,0
2023-04-05T03:07:24.610Z,0
2023-04-05T03:08:24.618Z,0
2023-04-05T03:09:24.613Z,0
2023-04-05T03:10:24.613Z,0
2023-04-05T03:11:24.614Z,0
2023-04-05T03:12:24.619Z,0
2023-04-05T03:13:24.620Z,0
2023-04-05T03:14:24.661Z,0
2023-04-05T03:15:24.617Z,0
2023-04-05T03:16:24.663Z,0
2023-04-05T03:17:24.643Z,0
2023-04-05T03:18:24.642Z,0
2023-04-05T03:19:24.630Z,0
2023-04-05T03:20:24.624Z,0
2023-04-05T03:21:24.647Z,0
2023-04-05T03:22:24.631Z,0
2023-04-05T03:23:24.632Z,0
2023-04-05T03:24:24.636Z,0
2023-04-05T03:25:24.635Z,0
2023-04-05T03:26:24.644Z,0
2023-04-05T03:27:24.644Z,0
2023-04-05T03:28:24.642Z,0
2023-04-05T03:29:24.642Z,0
2023-04-05T03:30:24.638Z,0
2023-04-05T03:31:24.656Z,0
2023-04-05T03:32:24.683Z,0
2023-04-05T03:33:24.644Z,0
2023-04-05T03:34:24.673Z,0
2023-04-05T03:35:24.660Z,0
2023-04-05T03:36:24.649Z,0
2023-04-05T03:37:24.650Z,0
2023-04-05T03:38:24.652Z,0
2023-04-05T03:39:24.648Z,0
2023-04-05T03:40:24.650Z,0
2023-04-05T03:41:24.654Z,0
2023-04-05T03:42:24.653Z,0
2023-04-05T03:43:24.652Z,0
2023-04-05T03:44:24.654Z,0
2023-04-05T03:45:24.808Z,0
2023-04-05T03:46:24.685Z,0
2023-04-05T03:47:24.662Z,0
2023-04-05T03:48:24.662Z,0
2023-04-05T03:49:24.657Z,0
2023-04-05T03:50:24.688Z,0
2023-04-05T03:51:24.659Z,0
2023-04-05T03:52:24.663Z,0
2023-04-05T03:53:24.671Z,0
2023-04-05T03:54:24.667Z,0
2023-04-05T03:55:24.670Z,0
2023-04-05T03:56:24.668Z,0
2023-04-05T03:57:24.669Z,0
2023-04-05T03:58:24.672Z,0
2023-04-05T03:59:24.688Z,0
2023-04-05T04:00:24.722Z,0
2023-04-05T04:01:24.675Z,0
2023-04-05T04:02:24.842Z,0
2023-04-05T04:03:24.678Z,0
2023-04-05T04:04:24.681Z,0
2023-04-05T04:05:24.689Z,0
2023-04-05T04:06:24.727Z,0
2023-04-05T04:07:24.679Z,0
2023-04-05T04:08:24.679Z,0
2023-04-05T04:09:24.691Z,0
2023-04-05T04:10:24.690Z,0
2023-04-05T04:11:24.692Z,0
2023-04-05T04:12:24.694Z,0
2023-04-05T04:13:24.697Z,0
2023-04-05T04:14:24.689Z,0
2023-04-05T04:15:24.689Z,0
2023-04-05T04:16:26.100Z,0
2023-04-05T04:17:24.701Z,0
2023-04-05T04:18:24.694Z,0
2023-04-05T04:19:24.699Z,0
2023-04-05T04:20:24.692Z,0
2023-04-05T04:21:24.698Z,2
2023-04-05T04:22:24.724Z,2
2023-04-05T04:23:24.705Z,2
2023-04-05T04:24:24.702Z,2
2023-04-05T04:25:24.699Z,2
2023-04-05T04:26:24.707Z,5
2023-04-05T04:27:24.704Z,5
2023-04-05T04:28:24.711Z,5
2023-04-05T04:29:24.708Z,5
2023-04-05T04:30:24.704Z,5
2023-04-05T04:31:24.713Z,11
2023-04-05T04:32:24.711Z,11
2023-04-05T04:33:24.712Z,11
2023-04-05T04:34:24.714Z,11
2023-04-05T04:35:24.796Z,11
2023-04-05T04:36:24.715Z,22
2023-04-05T04:37:24.714Z,22
2023-04-05T04:38:24.744Z,22
2023-04-05T04:39:24.720Z,22
2023-04-05T04:40:24.720Z,22
2023-04-05T04:41:24.718Z,41
2023-04-05T04:42:24.722Z,41
2023-04-05T04:43:24.724Z,41
2023-04-05T04:44:24.727Z,41
2023-04-05T04:45:24.755Z,41
2023-04-05T04:46:24.747Z,67
2023-04-05T04:47:24.778Z,67
2023-04-05T04:48:24.727Z,67
2023-04-05T04:49:24.726Z,67
2023-04-05T04:50:24.733Z,67
2023-04-05T04:51:24.729Z,98
2023-04-05T04:52:24.732Z,98
2023-04-05T04:53:24.736Z,98
2023-04-05T04:54:24.760Z,98
2023-04-05T04:55:24.738Z,98
2023-04-05T04:56:24.742Z,134
2023-04-05T04:57:24.738Z,134
2023-04-05T04:58:24.744Z,134
2023-04-05T04:59:24.783Z,134
2023-04-05T05:00:24.748Z,134
2023-04-05T05:01:24.766Z,173
2023-04-05T05:02:24.753Z,173
2023-04-05T05:03:24.744Z,173
2023-04-05T05:04:24.788Z,199
2023-04-05T05:05:24.744Z,199
2023-04-05T05:06:24.752Z,199
2023-04-05T05:07:24.760Z,199
2023-04-05T05:08:24.743Z,199
2023-04-05T05:09:24.740Z,249
2023-04-05T05:10:24.769Z,249
2023-04-05T05:11:24.746Z,249
2023-04-05T05:12:24.748Z,249
2023-04-05T05:13:24.749Z,249
2023-04-05T05:14:24.750Z,313
2023-04-05T05:15:24.749Z,313
2023-04-05T05:16:24.783Z,313
2023-04-05T05:17:24.753Z,313
2023-04-05T05:18:24.756Z,313
2023-04-05T05:19:24.758Z,378
2023-04-05T05:20:24.759Z,378
2023-04-05T05:21:24.759Z,378
2023-04-05T05:22:24.758Z,378
2023-04-05T05:23:24.764Z,378
2023-04-05T05:24:24.765Z,451
2023-04-05T05:25:24.763Z,451
2023-04-05T05:26:24.788Z,451
2023-04-05T05:27:24.761Z,451
2023-04-05T05:28:24.761Z,451
2023-04-05T05:29:24.775Z,923
2023-04-05T05:30:24.769Z,923
2023-04-05T05:31:24.790Z,923
2023-04-05T05:32:24.770Z,923
2023-04-05T05:33:24.769Z,923
2023-04-05T05:34:24.771Z,1519
2023-04-05T05:35:24.798Z,1519
2023-04-05T05:36:24.773Z,1519
2023-04-05T05:37:24.784Z,1519
2023-04-05T05:38:24.779Z,1519
2023-04-05T05:39:24.770Z,1229
2023-04-05T05:40:24.769Z,1229
2023-04-05T05:41:24.772Z,1229
2023-04-05T05:42:24.801Z,1229
2023-04-05T05:43:24.783Z,1229
2023-04-05T05:44:24.771Z,2241
2023-04-05T05:45:24.782Z,2241
2023-04-05T05:46:24.819Z,2241
2023-04-05T05:47:24.792Z,2241
2023-04-05T05:48:24.783Z,2241
2023-04-05T05:49:24.777Z,2500
2023-04-05T05:50:24.776Z,2500
2023-04-05T05:51:24.778Z,2500
2023-04-05T05:52:24.780Z,2500
2023-04-05T05:53:24.789Z,2500
2023-04-05T05:54:24.782Z,2791
2023-04-05T05:55:24.790Z,2791
2023-04-05T05:56:24.790Z,2791
2023-04-05T05:57:24.784Z,2791
2023-04-05T05:58:24.814Z,2791
2023-04-05T05:59:24.803Z,2707
2023-04-05T06:00:24.793Z,2707
2023-04-05T06:01:24.791Z,2707
2023-04-05T06:02:24.803Z,2707
2023-04-05T06:03:24.893Z,2707
2023-04-05T06:04:24.844Z,2478
2023-04-05T06:05:24.794Z,2478
2023-04-05T06:06:24.799Z,2478
2023-04-05T06:07:24.798Z,2478
2023-04-05T06:08:24.796Z,2478
2023-04-05T06:09:24.794Z,3518
2023-04-05T06:10:24.796Z,3518
2023-04-05T06:11:24.793Z,3518
2023-04-05T06:12:25.295Z,3518
2023-04-05T06:13:24.799Z,3518
2023-04-05T06:14:24.877Z,4302
2023-04-05T06:15:24.800Z,4302
2023-04-05T06:16:24.869Z,4302
2023-04-05T06:17:24.804Z,4302
2023-04-05T06:18:24.800Z,4302
2023-04-05T06:19:24.799Z,4835
2023-04-05T06:20:24.807Z,4835
2023-04-05T06:21:24.804Z,4835
2023-04-05T06:22:24.807Z,4835
2023-04-05T06:23:24.807Z,4835
2023-04-05T06:24:24.802Z,4811
2023-04-05T06:25:24.811Z,4811
2023-04-05T06:26:24.808Z,4811
2023-04-05T06:27:24.810Z,4811
2023-04-05T06:28:24.807Z,4811
2023-04-05T06:29:24.812Z,5339
2023-04-05T06:30:24.830Z,5339
2023-04-05T06:31:24.832Z,5339
2023-04-05T06:32:24.822Z,5339
2023-04-05T06:33:24.810Z,5339
2023-04-05T06:34:24.809Z,5520
2023-04-05T06:35:24.808Z,5520
2023-04-05T06:36:26.161Z,5520
2023-04-05T06:37:24.818Z,5520
2023-04-05T06:38:24.811Z,5520
2023-04-05T06:39:24.817Z,5720
2023-04-05T06:40:24.809Z,5720
2023-04-05T06:41:24.813Z,5720
2023-04-05T06:42:25.897Z,5720
2023-04-05T06:43:24.818Z,5720
2023-04-05T06:44:24.813Z,5913
2023-04-05T06:45:24.820Z,5913
2023-04-05T06:46:24.994Z,5913
2023-04-05T06:47:24.817Z,5913
2023-04-05T06:48:24.818Z,5913
2023-04-05T06:49:24.828Z,6122
2023-04-05T06:50:24.832Z,6122
2023-04-05T06:51:24.817Z,6122
2023-04-05T06:52:24.813Z,6122
2023-04-05T06:53:24.820Z,6122
2023-04-05T06:54:24.821Z,6245
2023-04-05T06:55:24.820Z,6279
2023-04-05T06:56:24.826Z,6279
2023-04-05T06:57:24.826Z,6279
2023-04-05T06:58:24.826Z,6279
2023-04-05T06:59:24.879Z,6279
2023-04-05T07:00:24.825Z,6483
2023-04-05T07:01:24.896Z,6483
2023-04-05T07:02:24.857Z,6483
2023-04-05T07:03:24.831Z,6483
2023-04-05T07:04:24.853Z,6483
2023-04-05T07:05:24.831Z,6741
2023-04-05T07:06:24.833Z,6803
2023-04-05T07:07:24.832Z,6795
2023-04-05T07:08:24.840Z,6888
2023-04-05T07:09:24.834Z,6888
2023-04-05T07:10:24.838Z,6888
2023-04-05T07:11:24.835Z,6888
2023-04-05T07:12:24.833Z,6888
2023-04-05T07:13:24.840Z,7052
2023-04-05T07:14:24.841Z,7052
2023-04-05T07:15:24.835Z,7052
2023-04-05T07:16:24.855Z,7052
2023-04-05T07:17:24.859Z,7052
2023-04-05T07:18:24.870Z,7052
2023-04-05T07:19:24.834Z,7052
2023-04-05T07:20:24.839Z,7248
2023-04-05T07:21:24.837Z,7253
2023-04-05T07:22:24.842Z,7253
2023-04-05T07:23:24.838Z,7345
2023-04-05T07:24:24.841Z,7311
2023-04-05T07:25:24.846Z,7357
2023-04-05T07:26:24.841Z,7384
2023-04-05T07:27:24.843Z,7384
2023-04-05T07:28:24.840Z,7384
2023-04-05T07:29:24.848Z,7384
2023-04-05T07:30:24.836Z,7384
2023-04-05T07:31:24.842Z,7480
2023-04-05T07:32:24.924Z,7480
2023-04-05T07:33:24.839Z,7513
2023-04-05T07:34:24.870Z,7513
2023-04-05T07:35:24.837Z,7600
2023-04-05T07:36:24.842Z,7554
2023-04-05T07:37:24.849Z,7570
2023-04-05T07:38:24.844Z,7614
2023-04-05T07:39:24.841Z,7614
2023-04-05T07:40:24.845Z,7614
2023-04-05T07:41:24.844Z,7593
2023-04-05T07:42:24.845Z,7593
2023-04-05T07:43:24.842Z,7593
2023-04-05T07:44:24.842Z,7603
2023-04-05T07:45:24.841Z,7631
2023-04-05T07:46:24.855Z,7612
2023-04-05T07:47:24.865Z,7612
2023-04-05T07:48:24.844Z,7640
2023-04-05T07:49:24.846Z,7640
2023-04-05T07:50:24.872Z,7640
2023-04-05T07:51:24.847Z,7737
2023-04-05T07:52:24.842Z,7727
2023-04-05T07:53:24.844Z,7786
2023-04-05T07:54:24.846Z,7739
2023-04-05T07:55:24.845Z,7814
2023-04-05T07:56:24.846Z,7784
2023-04-05T07:57:24.845Z,7788
2023-04-05T07:58:24.844Z,7804
2023-04-05T07:59:24.913Z,7804
2023-04-05T08:00:24.849Z,7887
2023-04-05T08:01:24.848Z,7849
2023-04-05T08:02:24.857Z,7870
2023-04-05T08:03:24.938Z,7903
2023-04-05T08:04:24.856Z,7918
2023-04-05T08:05:24.925Z,7923
2023-04-05T08:06:24.891Z,7956
2023-04-05T08:07:24.860Z,7914
2023-04-05T08:08:24.859Z,7898
2023-04-05T08:09:24.861Z,7905
2023-04-05T08:10:24.857Z,7909
2023-04-05T08:11:24.861Z,7898
2023-04-05T08:12:24.867Z,7934
2023-04-05T08:13:24.889Z,7887
2023-04-05T08:14:24.862Z,7887
2023-04-05T08:15:24.879Z,7912
2023-04-05T08:16:24.930Z,7985
2023-04-05T08:17:24.902Z,7962
2023-04-05T08:18:24.870Z,7973
2023-04-05T08:19:24.866Z,7973
2023-04-05T08:20:24.874Z,7962
2023-04-05T08:21:24.871Z,7932
2023-04-05T08:22:24.898Z,7927
2023-04-05T08:23:24.874Z,7949
2023-04-05T08:24:24.921Z,8015
2023-04-05T08:25:24.886Z,7967
2023-04-05T08:26:24.878Z,7960
2023-04-05T08:27:24.881Z,7978
2023-04-05T08:28:24.881Z,8011
2023-04-05T08:29:24.879Z,7940
2023-04-05T08:30:24.881Z,7949
2023-04-05T08:31:24.887Z,7982
2023-04-05T08:32:24.883Z,7929
2023-04-05T08:33:24.885Z,7907
2023-04-05T08:34:24.885Z,7914
2023-04-05T08:35:24.941Z,7900
2023-04-05T08:36:24.884Z,7872
2023-04-05T08:37:24.883Z,7869
2023-04-05T08:38:24.911Z,7892
2023-04-05T08:39:24.884Z,7890
2023-04-05T08:40:24.894Z,7849
2023-04-05T08:41:24.891Z,7874
2023-04-05T08:42:24.892Z,7903
2023-04-05T08:43:24.889Z,7901
2023-04-05T08:44:24.891Z,7920
2023-04-05T08:45:24.911Z,7901
2023-04-05T08:46:24.948Z,7909
2023-04-05T08:47:24.920Z,7900
2023-04-05T08:48:24.898Z,7930
2023-04-05T08:49:24.899Z,7869
2023-04-05T08:50:24.913Z,7905
2023-04-05T08:51:24.900Z,7894
2023-04-05T08:52:24.910Z,7912
2023-04-05T08:53:24.904Z,7921
2023-04-05T08:54:24.977Z,7903
2023-04-05T08:55:24.905Z,7912
2023-04-05T08:56:24.926Z,7907
2023-04-05T08:57:24.907Z,7920
2023-04-05T08:58:24.907Z,7960
2023-04-05T08:59:24.959Z,7929
2023-04-05T09:00:24.906Z,7929
2023-04-05T09:01:24.925Z,7916
2023-04-05T09:02:25.025Z,7905
2023-04-05T09:03:25.041Z,7920
2023-04-05T09:04:24.910Z,7934
2023-04-05T09:05:24.921Z,7912
2023-04-05T09:06:24.916Z,7898
2023-04-05T09:07:24.917Z,7916
2023-04-05T09:08:24.914Z,7925
2023-04-05T09:09:24.917Z,7940
2023-04-05T09:10:24.955Z,7909
2023-04-05T09:11:24.921Z,7916
2023-04-05T09:12:24.923Z,7869
2023-04-05T09:13:24.923Z,7836
2023-04-05T09:14:24.927Z,7805
2023-04-05T09:15:24.924Z,7802
2023-04-05T09:16:24.953Z,7795
2023-04-05T09:17:24.936Z,7784
2023-04-05T09:18:27.157Z,7788
2023-04-05T09:19:24.923Z,7723
2023-04-05T09:20:24.928Z,7714
2023-04-05T09:21:24.926Z,7704
2023-04-05T09:22:24.929Z,7654
2023-04-05T09:23:24.931Z,7605
2023-04-05T09:24:24.945Z,7640
2023-04-05T09:25:24.928Z,7574
2023-04-05T09:26:25.095Z,7645
2023-04-05T09:27:24.934Z,7716
2023-04-05T09:28:24.932Z,7750
2023-04-05T09:29:24.932Z,7713
2023-04-05T09:30:24.935Z,7720
2023-04-05T09:31:25.035Z,7732
2023-04-05T09:32:24.977Z,7714
2023-04-05T09:33:24.937Z,7707
2023-04-05T09:34:24.940Z,7732
2023-04-05T09:35:24.934Z,7732
2023-04-05T09:36:24.943Z,7720
2023-04-05T09:37:24.941Z,7734
2023-04-05T09:38:24.940Z,7718
2023-04-05T09:39:24.941Z,7693
2023-04-05T09:40:24.940Z,7682
2023-04-05T09:41:24.941Z,7658
2023-04-05T09:42:24.977Z,7681
2023-04-05T09:43:24.941Z,7647
2023-04-05T09:44:24.943Z,7612
2023-04-05T09:45:24.977Z,7584
2023-04-05T09:46:24.997Z,7584
2023-04-05T09:47:25.013Z,7582
2023-04-05T09:48:24.949Z,7598
2023-04-05T09:49:24.956Z,7584
2023-04-05T09:50:24.962Z,7607
2023-04-05T09:51:24.960Z,7554
2023-04-05T09:52:24.960Z,7539
2023-04-05T09:53:24.958Z,7549
2023-04-05T09:54:24.963Z,7521
2023-04-05T09:55:24.955Z,7480
2023-04-05T09:56:24.961Z,7495
2023-04-05T09:57:24.960Z,7461
2023-04-05T09:58:24.981Z,7471
2023-04-05T09:59:24.971Z,7495
2023-04-05T10:00:24.958Z,7495
2023-04-05T10:01:24.966Z,7464
2023-04-05T10:02:25.197Z,7478
2023-04-05T10:03:25.005Z,7425
2023-04-05T10:04:24.962Z,7451
2023-04-05T10:05:24.966Z,7428
2023-04-05T10:06:24.960Z,7386
2023-04-05T10:07:24.980Z,7347
2023-04-05T10:08:24.962Z,7357
2023-04-05T10:09:24.962Z,7333
2023-04-05T10:10:24.967Z,7246
2023-04-05T10:11:24.973Z,7310
2023-04-05T10:12:24.962Z,7264
2023-04-05T10:13:24.973Z,7345
2023-04-05T10:14:24.992Z,7150
2023-04-05T10:15:24.967Z,7264
2023-04-05T10:16:25.029Z,7266
2023-04-05T10:17:24.977Z,7285
2023-04-05T10:18:24.975Z,7269
2023-04-05T10:19:24.976Z,7238
2023-04-05T10:20:24.995Z,7211
2023-04-05T10:21:25.004Z,7178
2023-04-05T10:22:24.978Z,7181
2023-04-05T10:23:24.981Z,7125
2023-04-05T10:24:24.978Z,7203
2023-04-05T10:25:24.986Z,7198
2023-04-05T10:26:24.996Z,7190
2023-04-05T10:27:24.999Z,7180
2023-04-05T10:28:25.018Z,7168
2023-04-05T10:29:25.027Z,7148
2023-04-05T10:30:25.031Z,7156
2023-04-05T10:31:36.828Z,7127
2023-04-05T10:32:25.136Z,7129
2023-04-05T10:33:25.042Z,7137
2023-04-05T10:34:24.991Z,7112
2023-04-05T10:35:24.998Z,7112
2023-04-05T10:36:25.025Z,7104
2023-04-05T10:37:24.988Z,7104
2023-04-05T10:38:24.990Z,7104
2023-04-05T10:39:25.027Z,7112
2023-04-05T10:40:24.991Z,7112
2023-04-05T10:41:24.988Z,7097
2023-04-05T10:42:24.986Z,7083
2023-04-05T10:43:25.028Z,7083
2023-04-05T10:44:26.547Z,7058
2023-04-05T10:45:25.017Z,7016
2023-04-05T10:46:25.047Z,6950
2023-04-05T10:47:25.038Z,7008
2023-04-05T10:48:25.058Z,6953
2023-04-05T10:49:24.992Z,6937
2023-04-05T10:50:25.013Z,6880
2023-04-05T10:51:24.991Z,6941
2023-04-05T10:52:24.997Z,6909
2023-04-05T10:53:24.996Z,6894
2023-04-05T10:54:25.009Z,6925
2023-04-05T10:55:25.044Z,6960
2023-04-05T10:56:25.029Z,6933
2023-04-05T10:57:25.000Z,6926
2023-04-05T10:58:25.043Z,6920
2023-04-05T10:59:25.045Z,6877
2023-04-05T11:00:24.996Z,6877
2023-04-05T11:01:25.009Z,6834
2023-04-05T11:02:25.129Z,6803
2023-04-05T11:03:25.136Z,6772
2023-04-05T11:04:25.038Z,6792
2023-04-05T11:05:25.059Z,6759
2023-04-05T11:06:25.016Z,6761
2023-04-05T11:07:25.012Z,6842
2023-04-05T11:08:25.017Z,6803
2023-04-05T11:09:25.024Z,6794
2023-04-05T11:10:25.021Z,6764
2023-04-05T11:11:25.019Z,6759
2023-04-05T11:12:25.020Z,6772
2023-04-05T11:13:25.031Z,6789
2023-04-05T11:14:25.022Z,6820
2023-04-05T11:15:25.021Z,6773
2023-04-05T11:16:25.039Z,6773
2023-04-05T11:17:25.067Z,6747
2023-04-05T11:18:25.081Z,6691
2023-04-05T11:19:25.031Z,6676
2023-04-05T11:20:25.049Z,6637
2023-04-05T11:21:25.051Z,6671
2023-04-05T11:22:25.034Z,6731
2023-04-05T11:23:25.230Z,6739
2023-04-05T11:24:25.035Z,6713
2023-04-05T11:25:25.052Z,6696
2023-04-05T11:26:25.033Z,6693
2023-04-05T11:27:25.043Z,6662
2023-04-05T11:28:25.057Z,6650
2023-04-05T11:29:25.038Z,6650
2023-04-05T11:30:25.037Z,6642
2023-04-05T11:31:25.117Z,6543
2023-04-05T11:32:25.071Z,6627
2023-04-05T11:33:25.046Z,6583
2023-04-05T11:34:25.218Z,6602
2023-04-05T11:35:25.055Z,6610
2023-04-05T11:36:25.048Z,6566
2023-04-05T11:37:25.045Z,6578
2023-04-05T11:38:25.046Z,6605
2023-04-05T11:39:25.054Z,6593
2023-04-05T11:40:25.050Z,6521
2023-04-05T11:41:25.048Z,6498
2023-04-05T11:42:25.052Z,6521
2023-04-05T11:43:25.052Z,6518
2023-04-05T11:44:25.048Z,6506
2023-04-05T11:45:25.050Z,6567
2023-04-05T11:46:25.163Z,6543
2023-04-05T11:47:25.067Z,6545
2023-04-05T11:48:25.056Z,6525
2023-04-05T11:49:25.063Z,6519
2023-04-05T11:50:25.084Z,6521
2023-04-05T11:51:25.061Z,6509
2023-04-05T11:52:25.063Z,6504
2023-04-05T11:53:25.065Z,6522
2023-04-05T11:54:25.061Z,6518
2023-04-05T11:55:25.065Z,6497
2023-04-05T11:56:25.063Z,6486
2023-04-05T11:57:25.075Z,6488
2023-04-05T11:58:25.062Z,6536
2023-04-05T11:59:25.081Z,6533
2023-04-05T12:00:25.062Z,6518
2023-04-05T12:01:25.064Z,6516
2023-04-05T12:02:25.117Z,6537
2023-04-05T12:03:25.087Z,6518
2023-04-05T12:04:25.094Z,6513
2023-04-05T12:05:25.067Z,6519
2023-04-05T12:06:25.095Z,6480
2023-04-05T12:07:25.063Z,6480
2023-04-05T12:08:25.067Z,6480
2023-04-05T12:09:25.068Z,6464
2023-04-05T12:10:25.069Z,6467
2023-04-05T12:11:25.065Z,6533
2023-04-05T12:12:25.062Z,6501
2023-04-05T12:13:25.064Z,6509
2023-04-05T12:14:25.066Z,6518
2023-04-05T12:15:25.070Z,6518
2023-04-05T12:16:25.114Z,6563
2023-04-05T12:17:25.090Z,6506
2023-04-05T12:18:25.073Z,6439
2023-04-05T12:19:25.072Z,6408
2023-04-05T12:20:25.093Z,6443
2023-04-05T12:21:25.081Z,6451
2023-04-05T12:22:25.105Z,6489
2023-04-05T12:23:25.078Z,6521
2023-04-05T12:24:25.083Z,6531
2023-04-05T12:25:25.077Z,6534
2023-04-05T12:26:25.076Z,6569
2023-04-05T12:27:25.082Z,6566
2023-04-05T12:28:25.087Z,6548
2023-04-05T12:29:25.079Z,6521
2023-04-05T12:30:25.105Z,6537
2023-04-05T12:31:25.117Z,6504
2023-04-05T12:32:25.116Z,6476
2023-04-05T12:33:25.083Z,6516
2023-04-05T12:34:25.086Z,6528
2023-04-05T12:35:25.113Z,6539
2023-04-05T12:36:25.113Z,6524
2023-04-05T12:37:25.081Z,6567
2023-04-05T12:38:25.114Z,6525
2023-04-05T12:39:25.085Z,6521
2023-04-05T12:40:25.117Z,6592
2023-04-05T12:41:25.085Z,6580
2023-04-05T12:42:25.088Z,6554
2023-04-05T12:43:25.094Z,6530
2023-04-05T12:44:25.092Z,6473
2023-04-05T12:45:25.106Z,6485
2023-04-05T12:46:25.110Z,6528
2023-04-05T12:47:25.110Z,6583
2023-04-05T12:48:25.096Z,6534
2023-04-05T12:49:25.095Z,6534
2023-04-05T12:50:25.098Z,6471
2023-04-05T12:51:25.092Z,6494
2023-04-05T12:52:25.096Z,6537
2023-04-05T12:53:25.094Z,6534
2023-04-05T12:54:25.120Z,6572
2023-04-05T12:55:25.100Z,6525
2023-04-05T12:56:25.098Z,6545
2023-04-05T12:57:25.101Z,6566
2023-04-05T12:58:25.094Z,6474
2023-04-05T12:59:25.140Z,6465
2023-04-05T13:00:25.101Z,6480
2023-04-05T13:01:25.166Z,6454
2023-04-05T13:02:25.138Z,6422
2023-04-05T13:03:25.157Z,6422
2023-04-05T13:04:25.103Z,6381
2023-04-05T13:05:25.117Z,6381
2023-04-05T13:06:25.100Z,6408
2023-04-05T13:07:25.106Z,6386
2023-04-05T13:08:25.104Z,6380
2023-04-05T13:09:25.105Z,6353
2023-04-05T13:10:25.150Z,6343
2023-04-05T13:11:25.121Z,6326
2023-04-05T13:12:25.114Z,6314
2023-04-05T13:13:25.113Z,6279
2023-04-05T13:14:25.109Z,6263
2023-04-05T13:15:25.112Z,6272
2023-04-05T13:16:25.148Z,6243
2023-04-05T13:17:25.127Z,6209
2023-04-05T13:18:25.112Z,6190
2023-04-05T13:19:25.117Z,6146
2023-04-05T13:20:25.122Z,6108
2023-04-05T13:21:25.162Z,6074
2023-04-05T13:22:25.115Z,6094
2023-04-05T13:23:25.114Z,6100
2023-04-05T13:24:25.116Z,6112
2023-04-05T13:25:25.114Z,6139
2023-04-05T13:26:25.178Z,6142
2023-04-05T13:27:25.120Z,6112
2023-04-05T13:28:25.121Z,6090
2023-04-05T13:29:25.114Z,6093
2023-04-05T13:30:25.122Z,6062
2023-04-05T13:31:25.147Z,6063
2023-04-05T13:32:25.143Z,6058
2023-04-05T13:33:25.119Z,6048
2023-04-05T13:34:25.118Z,6048
2023-04-05T13:35:25.137Z,5979
2023-04-05T13:36:25.124Z,6015
2023-04-05T13:37:25.116Z,6034
2023-04-05T13:38:25.125Z,6026
2023-04-05T13:39:25.127Z,6017
2023-04-05T13:40:25.118Z,5990
2023-04-05T13:41:25.113Z,5985
2023-04-05T13:42:25.143Z,5970
2023-04-05T13:43:25.113Z,5932
2023-04-05T13:44:25.119Z,5959
2023-04-05T13:45:25.130Z,5929
2023-04-05T13:46:25.270Z,5957
2023-04-05T13:47:25.124Z,5921
2023-04-05T13:48:25.127Z,5913